Time;durP1;ratioP1;P1;durP2;ratioP2;P2;SDS_P1;SDS_P2;PMS_P1;PMS_P2;Temp;Humidity;BMP_temperature;BMP_pressure;BME280_temperature;BME280_humidity;BME280_pressure;Samples;Min_cycle;Max_cycle;Signal;HPM_P1;HPM_P2
2022/12/14 00:00:50;;;;;;;16.30;3.33;;;;;;;;;;5000482;28;20168;-71
2022/12/14 00:03:16;;;;;;;10.05;2.80;;;;;;;;;;5004550;28;20014;-79
2022/12/14 00:05:43;;;;;;;14.85;4.10;;;;;;;;;;5004220;28;20116;-72
2022/12/14 00:08:10;;;;;;;14.45;3.53;;;;;;;;;;5002137;28;20032;-71
2022/12/14 00:10:37;;;;;;;17.08;3.60;;;;;;;;;;5002886;28;20107;-71
2022/12/14 00:13:04;;;;;;;12.13;3.33;;;;;;;;;;5002354;28;20448;-72
2022/12/14 00:15:31;;;;;;;12.75;3.40;;;;;;;;;;5001601;28;20487;-74
2022/12/14 00:17:57;;;;;;;18.75;3.90;;;;;;;;;;5003622;28;20026;-71
2022/12/14 00:20:23;;;;;;;14.13;3.72;;;;;;;;;;5000439;28;20032;-74
2022/12/14 00:22:50;;;;;;;20.98;3.50;;;;;;;;;;5002079;28;20060;-71
2022/12/14 00:25:16;;;;;;;13.20;3.67;;;;;;;;;;5003238;28;20046;-71
2022/12/14 00:27:43;;;;;;;9.93;3.08;;;;;;;;;;5003693;28;20729;-71
2022/12/14 00:30:10;;;;;;;10.48;3.65;;;;;;;;;;5003048;28;20025;-72
2022/12/14 00:32:36;;;;;;;24.50;4.57;;;;;;;;;;4997831;28;20022;-72
2022/12/14 00:35:02;;;;;;;14.73;3.75;;;;;;;;;;5000857;28;20095;-71
2022/12/14 00:37:28;;;;;;;14.73;3.83;;;;;;;;;;5003807;28;20026;-71
2022/12/14 00:39:55;;;;;;;21.30;3.88;;;;;;;;;;5003478;28;20117;-73
2022/12/14 00:42:21;;;;;;;13.20;3.40;;;;;;;;;;5003537;28;20034;-73
2022/12/14 00:44:47;;;;;;;17.45;3.63;;;;;;;;;;4999786;28;20018;-72
2022/12/14 00:47:13;;;;;;;13.52;3.63;;;;;;;;;;5001956;28;20430;-72
2022/12/14 00:49:39;;;;;;;12.05;3.20;;;;;;;;;;5000828;28;20434;-71
2022/12/14 00:52:06;;;;;;;16.65;3.50;;;;;;;;;;5002687;28;20528;-71
2022/12/14 00:54:32;;;;;;;11.45;3.55;;;;;;;;;;5003169;28;20029;-72
2022/12/14 00:56:58;;;;;;;10.30;2.80;;;;;;;;;;5002114;28;20040;-74
2022/12/14 00:59:24;;;;;;;14.02;3.83;;;;;;;;;;5001249;28;20029;-72
2022/12/14 01:01:50;;;;;;;12.18;2.97;;;;;;;;;;5002900;28;20034;-77
2022/12/14 01:04:16;;;;;;;12.90;3.28;;;;;;;;;;5000379;28;20037;-71
2022/12/14 01:06:46;;;;;;;14.05;3.50;;;;;;;;;;5004487;28;20029;-72
2022/12/14 01:09:12;;;;;;;13.40;3.60;;;;;;;;;;5000762;28;20513;-73
2022/12/14 01:11:39;;;;;;;12.73;3.58;;;;;;;;;;4998440;28;20034;-72
2022/12/14 01:14:05;;;;;;;13.85;3.70;;;;;;;;;;5000343;28;20030;-71
2022/12/14 01:16:31;;;;;;;13.10;3.58;;;;;;;;;;5003285;28;20041;-71
2022/12/14 01:18:58;;;;;;;9.68;3.10;;;;;;;;;;5002659;28;20026;-76
2022/12/14 01:21:25;;;;;;;11.07;2.90;;;;;;;;;;5000144;28;20113;-72
2022/12/14 01:23:52;;;;;;;15.10;3.78;;;;;;;;;;4997969;28;20022;-71
2022/12/14 01:26:19;;;;;;;10.65;3.67;;;;;;;;;;5002592;28;20056;-75
2022/12/14 01:28:45;;;;;;;11.65;3.47;;;;;;;;;;5002984;28;20027;-73
2022/12/14 01:31:15;;;;;;;13.70;2.83;;;;;;;;;;5002976;28;20053;-72
2022/12/14 01:33:46;;;;;;;13.23;3.78;;;;;;;;;;5001999;28;20077;-74
2022/12/14 01:36:14;;;;;;;12.88;3.38;;;;;;;;;;5003100;28;20518;-72
2022/12/14 01:38:40;;;;;;;16.58;3.60;;;;;;;;;;5002988;28;20037;-71
2022/12/14 01:41:07;;;;;;;13.38;4.03;;;;;;;;;;5003055;28;20499;-73
2022/12/14 01:43:47;;;;;;;17.10;3.20;;;;;;;;;;4999483;28;20578;-72
2022/12/14 01:46:15;;;;;;;15.38;3.17;;;;;;;;;;5000287;28;20034;-72
2022/12/14 01:48:41;;;;;;;9.90;2.88;;;;;;;;;;5002946;28;20033;-72
2022/12/14 01:51:08;;;;;;;8.70;3.33;;;;;;;;;;5002673;28;20073;-71
2022/12/14 01:53:34;;;;;;;11.73;3.58;;;;;;;;;;5000871;28;20790;-73
2022/12/14 01:56:00;;;;;;;13.75;3.33;;;;;;;;;;5002828;28;20034;-71
2022/12/14 01:58:27;;;;;;;12.38;3.10;;;;;;;;;;5001617;28;20034;-72
2022/12/14 02:00:55;;;;;;;20.73;3.83;;;;;;;;;;5001927;28;20040;-72
2022/12/14 02:03:21;;;;;;;9.38;3.33;;;;;;;;;;5000882;28;20028;-71
2022/12/14 02:05:51;;;;;;;12.60;3.00;;;;;;;;;;5001047;28;20029;-71
2022/12/14 02:08:18;;;;;;;13.82;2.90;;;;;;;;;;5003058;28;20032;-72
2022/12/14 02:10:44;;;;;;;8.38;2.85;;;;;;;;;;5002459;28;20024;-72
2022/12/14 02:13:19;;;;;;;8.70;3.08;;;;;;;;;;5002849;28;20026;-78
2022/12/14 02:15:46;;;;;;;7.50;2.80;;;;;;;;;;5002803;28;20096;-73
2022/12/14 02:18:17;;;;;;;13.00;2.67;;;;;;;;;;5000478;28;20030;-71
2022/12/14 02:21:09;;;;;;;12.88;3.17;;;;;;;;;;4993182;28;20037;-72
2022/12/14 02:23:44;;;;;;;14.70;3.22;;;;;;;;;;4975341;28;20478;-75
2022/12/14 02:26:29;;;;;;;12.52;3.28;;;;;;;;;;5003233;28;20099;-71
2022/12/14 02:29:14;;;;;;;11.50;3.10;;;;;;;;;;5002497;28;20421;-71
2022/12/14 02:31:46;;;;;;;10.60;3.15;;;;;;;;;;5000019;28;20480;-75
2022/12/14 02:34:12;;;;;;;;;;;;;;;;;;5005928;28;20026;-72
2022/12/14 02:36:44;;;;;;;14.27;3.05;;;;;;;;;;5004468;28;20376;-71
2022/12/14 02:39:13;;;;;;;12.07;3.25;;;;;;;;;;5005930;28;20536;-72
2022/12/14 02:41:46;;;;;;;13.73;3.85;;;;;;;;;;5005305;28;20052;-72
2022/12/14 02:44:31;;;;;;;9.77;3.17;;;;;;;;;;5005963;28;20072;-71
2022/12/14 02:46:57;;;;;;;12.57;3.08;;;;;;;;;;4999909;28;20500;-71
2022/12/14 02:49:38;;;;;;;8.85;2.40;;;;;;;;;;5005923;28;20032;-74
2022/12/14 02:52:13;;;;;;;7.90;2.72;;;;;;;;;;5000755;28;20077;-72
2022/12/14 02:54:45;;;;;;;9.00;2.22;;;;;;;;;;5005824;28;20029;-72
2022/12/14 02:57:23;;;;;;;9.85;2.72;;;;;;;;;;5005676;28;20042;-79
2022/12/14 02:59:51;;;;;;;10.77;2.55;;;;;;;;;;5001624;28;20038;-72
2022/12/14 03:02:18;;;;;;;10.02;2.55;;;;;;;;;;5005317;28;20030;-71
2022/12/14 03:04:47;;;;;;;7.03;2.20;;;;;;;;;;5005946;28;20034;-72
2022/12/14 03:07:30;;;;;;;9.85;2.60;;;;;;;;;;5005604;28;20384;-73
2022/12/14 03:09:58;;;;;;;7.03;2.17;;;;;;;;;;5004272;28;20604;-77
2022/12/14 03:12:24;;;;;;;8.27;2.45;;;;;;;;;;5003012;28;20037;-72
2022/12/14 03:14:52;;;;;;;8.13;2.58;;;;;;;;;;5005205;28;20022;-78
2022/12/14 03:17:29;;;;;;;7.60;2.17;;;;;;;;;;5006178;28;20030;-72
2022/12/14 03:20:10;;;;;;;9.40;2.17;;;;;;;;;;5002822;28;20030;-72
2022/12/14 03:22:43;;;;;;;11.48;2.38;;;;;;;;;;4999878;28;20565;-72
2022/12/14 03:25:21;;;;;;;11.02;2.33;;;;;;;;;;5003458;28;20184;-72
2022/12/14 03:27:53;;;;;;;6.88;2.88;;;;;;;;;;5005384;28;20109;-71
2022/12/14 03:30:20;;;;;;;7.75;2.58;;;;;;;;;;5005066;28;20014;-73
2022/12/14 03:32:51;;;;;;;7.18;2.47;;;;;;;;;;5005132;28;20045;-71
2022/12/14 03:35:17;;;;;;;;;;;;;;;;;;5005313;28;20026;-71
2022/12/14 03:37:56;;;;;;;7.68;2.50;;;;;;;;;;5017378;28;19979;-79
2022/12/14 03:40:26;;;;;;;14.90;2.10;;;;;;;;;;5003670;28;20544;-79
2022/12/14 03:43:02;;;;;;;7.72;1.90;;;;;;;;;;4998124;28;20469;-79
2022/12/14 03:45:43;;;;;;;9.85;2.63;;;;;;;;;;5001581;28;20018;-76
2022/12/14 03:48:18;;;;;;;6.85;2.20;;;;;;;;;;5004245;28;20071;-77
2022/12/14 03:50:47;;;;;;;8.10;2.13;;;;;;;;;;5004309;28;20140;-74
2022/12/14 03:53:13;;;;;;;7.32;2.00;;;;;;;;;;5003840;28;20034;-78
2022/12/14 03:55:39;;;;;;;11.73;2.00;;;;;;;;;;5004979;28;20030;-79
2022/12/14 03:58:27;;;;;;;4.72;1.60;;;;;;;;;;5004684;28;20034;-71
2022/12/14 04:01:16;;;;;;;4.35;1.77;;;;;;;;;;5002817;28;20030;-77
2022/12/14 04:03:52;;;;;;;4.03;1.67;;;;;;;;;;5004927;28;20056;-80
2022/12/14 04:06:30;;;;;;;7.50;2.08;;;;;;;;;;5002303;28;20026;-78
2022/12/14 04:09:02;;;;;;;5.03;1.75;;;;;;;;;;5004603;28;20412;-79
2022/12/14 04:19:55;;;;;;;5.18;1.75;;;;;;;;;;5002022;28;20810;-73
2022/12/14 04:22:23;;;;;;;4.32;1.80;;;;;;;;;;4996952;28;20030;-80
2022/12/14 04:31:01;;;;;;;5.53;1.65;;;;;;;;;;4990648;28;20041;-79
2022/12/14 04:33:46;;;;;;;3.03;1.73;;;;;;;;;;5002185;28;20082;-77
2022/12/14 04:36:29;;;;;;;6.55;2.22;;;;;;;;;;4999930;28;20080;-79
2022/12/14 04:38:58;;;;;;;4.43;2.00;;;;;;;;;;5001026;28;20022;-73
2022/12/14 04:41:28;;;;;;;7.00;2.20;;;;;;;;;;5000431;28;20032;-72
2022/12/14 04:43:57;;;;;;;5.72;1.80;;;;;;;;;;4999364;28;20030;-81
2022/12/14 04:46:31;;;;;;;5.18;1.77;;;;;;;;;;4999402;28;20179;-78
2022/12/14 04:49:33;;;;;;;4.45;1.90;;;;;;;;;;5001356;28;20033;-72
2022/12/14 04:52:04;;;;;;;3.95;1.77;;;;;;;;;;4922279;29;20023;-72
2022/12/14 04:54:30;;;;;;;;;;;;;;;;;;4989046;28;20042;-75
2022/12/14 04:57:02;;;;;;;4.07;1.98;;;;;;;;;;4992967;28;19961;-79
2022/12/14 04:59:28;;;;;;;4.15;1.70;;;;;;;;;;4998599;28;20022;-77
2022/12/14 05:02:00;;;;;;;4.57;1.88;;;;;;;;;;5000772;28;20030;-71
2022/12/14 05:04:26;;;;;;;;;;;;;;;;;;5000980;28;20025;-75
2022/12/14 05:07:01;;;;;;;5.40;1.85;;;;;;;;;;5011695;28;19913;-75
2022/12/14 05:09:29;;;;;;;4.85;1.75;;;;;;;;;;5001822;28;20021;-80
2022/12/14 05:12:01;;;;;;;3.63;1.90;;;;;;;;;;4999386;28;20042;-79
2022/12/14 05:14:36;;;;;;;5.38;1.75;;;;;;;;;;4999586;28;20029;-77
2022/12/14 05:17:04;;;;;;;4.32;2.10;;;;;;;;;;4993451;28;20041;-75
2022/12/14 05:19:30;;;;;;;4.80;2.25;;;;;;;;;;5001045;28;20497;-76
2022/12/14 05:21:58;;;;;;;3.70;1.80;;;;;;;;;;4996105;28;20034;-72
2022/12/14 05:24:24;;;;;;;7.55;2.20;;;;;;;;;;5001330;28;20074;-72
2022/12/14 05:26:50;;;;;;;4.18;1.85;;;;;;;;;;4997958;28;20030;-72
2022/12/14 05:29:16;;;;;;;2.95;1.83;;;;;;;;;;5001486;28;20526;-71
2022/12/14 05:31:42;;;;;;;6.55;2.28;;;;;;;;;;5000340;28;20026;-74
2022/12/14 05:34:09;;;;;;;7.13;2.22;;;;;;;;;;5001281;28;20036;-75
2022/12/14 05:36:35;;;;;;;4.93;2.08;;;;;;;;;;5000380;28;20075;-77
2022/12/14 05:39:01;;;;;;;3.83;1.80;;;;;;;;;;5001238;28;20026;-71
2022/12/14 05:41:27;;;;;;;6.10;1.95;;;;;;;;;;4999030;28;20061;-71
2022/12/14 05:43:53;;;;;;;6.85;2.42;;;;;;;;;;5001377;28;20101;-71
2022/12/14 05:46:19;;;;;;;7.18;2.30;;;;;;;;;;4995118;28;20026;-71
2022/12/14 05:48:45;;;;;;;4.25;2.00;;;;;;;;;;4998601;28;20064;-72
2022/12/14 05:51:13;;;;;;;5.20;2.15;;;;;;;;;;4997503;28;20030;-72
2022/12/14 05:53:39;;;;;;;7.43;2.10;;;;;;;;;;4997549;28;20025;-73
2022/12/14 05:56:07;;;;;;;6.32;2.20;;;;;;;;;;4999873;28;20030;-71
2022/12/14 05:58:34;;;;;;;6.30;2.25;;;;;;;;;;5000184;28;20472;-74
2022/12/14 06:01:00;;;;;;;6.32;2.30;;;;;;;;;;4998919;28;20397;-71
2022/12/14 06:03:27;;;;;;;4.18;2.00;;;;;;;;;;5004521;28;20038;-72
2022/12/14 06:05:54;;;;;;;6.00;2.03;;;;;;;;;;5004959;28;20025;-71
2022/12/14 06:08:20;;;;;;;6.30;2.15;;;;;;;;;;5004235;28;20026;-71
2022/12/14 06:10:46;;;;;;;4.22;2.38;;;;;;;;;;5003914;28;20018;-71
2022/12/14 06:13:12;;;;;;;9.30;2.33;;;;;;;;;;5002528;28;20020;-71
2022/12/14 06:15:39;;;;;;;3.47;1.83;;;;;;;;;;5004577;28;20218;-71
2022/12/14 06:18:06;;;;;;;7.25;2.33;;;;;;;;;;5003562;28;20386;-74
2022/12/14 06:20:32;;;;;;;9.88;2.35;;;;;;;;;;5005130;28;20517;-71
2022/12/14 06:22:58;;;;;;;6.38;2.80;;;;;;;;;;5001946;28;20065;-71
2022/12/14 06:25:24;;;;;;;4.88;2.40;;;;;;;;;;5002052;28;20045;-71
2022/12/14 06:27:53;;;;;;;6.65;2.38;;;;;;;;;;5004081;28;20030;-72
2022/12/14 06:30:20;;;;;;;8.05;2.40;;;;;;;;;;5003213;28;20022;-71
2022/12/14 06:32:46;;;;;;;7.82;2.20;;;;;;;;;;5003987;28;20022;-70
2022/12/14 06:35:12;;;;;;;4.55;2.28;;;;;;;;;;5002710;28;20017;-73
2022/12/14 06:37:38;;;;;;;7.68;2.83;;;;;;;;;;5004617;28;20026;-71
2022/12/14 06:40:05;;;;;;;5.85;2.58;;;;;;;;;;5004130;28;20072;-73
2022/12/14 06:42:31;;;;;;;4.03;2.20;;;;;;;;;;5002496;28;20091;-72
2022/12/14 06:44:57;;;;;;;6.68;2.30;;;;;;;;;;5002103;28;20034;-78
2022/12/14 06:47:24;;;;;;;3.72;2.22;;;;;;;;;;5004022;28;20096;-79
2022/12/14 06:49:50;;;;;;;8.93;2.88;;;;;;;;;;5004321;28;20025;-74
2022/12/14 06:52:16;;;;;;;6.45;2.53;;;;;;;;;;5000196;28;20684;-78
2022/12/14 06:54:43;;;;;;;7.18;2.50;;;;;;;;;;5003121;28;20700;-71
2022/12/14 06:57:09;;;;;;;10.52;3.40;;;;;;;;;;5001918;28;20276;-71
2022/12/14 06:59:35;;;;;;;6.90;2.53;;;;;;;;;;5003970;28;20080;-72
2022/12/14 07:02:01;;;;;;;7.43;2.17;;;;;;;;;;5003077;28;20030;-75
2022/12/14 07:04:27;;;;;;;7.10;2.78;;;;;;;;;;5003805;28;20030;-78
2022/12/14 07:06:53;;;;;;;8.55;2.72;;;;;;;;;;5000628;28;20084;-78
2022/12/14 07:09:20;;;;;;;5.88;2.67;;;;;;;;;;4997404;28;20080;-84
2022/12/14 07:11:49;;;;;;;9.70;3.00;;;;;;;;;;5003043;28;20026;-84
2022/12/14 07:14:16;;;;;;;5.85;2.42;;;;;;;;;;5003287;28;20033;-84
2022/12/14 07:16:42;;;;;;;4.95;2.50;;;;;;;;;;5002546;28;20034;-79
2022/12/14 07:19:09;;;;;;;6.55;2.25;;;;;;;;;;5002649;28;20026;-71
2022/12/14 07:21:36;;;;;;;8.07;2.22;;;;;;;;;;5001963;28;20033;-77
2022/12/14 07:24:02;;;;;;;6.80;2.50;;;;;;;;;;5002017;28;20167;-78
2022/12/14 07:26:29;;;;;;;6.50;2.20;;;;;;;;;;4998715;28;20386;-79
2022/12/14 07:28:57;;;;;;;4.80;2.30;;;;;;;;;;5000598;28;20447;-79
2022/12/14 07:31:25;;;;;;;8.25;4.35;;;;;;;;;;5001691;28;20469;-85
2022/12/14 07:33:53;;;;;;;6.53;2.83;;;;;;;;;;5004505;28;20017;-76
2022/12/14 07:36:19;;;;;;;6.65;2.00;;;;;;;;;;5003694;28;20034;-82
2022/12/14 07:38:47;;;;;;;8.00;2.75;;;;;;;;;;5006136;28;20392;-85
2022/12/14 07:41:17;;;;;;;8.02;2.72;;;;;;;;;;5006004;28;20628;-74
2022/12/14 07:43:43;;;;;;;5.68;2.28;;;;;;;;;;5002517;28;20064;-78
2022/12/14 07:46:11;;;;;;;6.03;2.80;;;;;;;;;;5005042;28;20029;-83
2022/12/14 07:48:37;;;;;;;6.60;2.35;;;;;;;;;;5006061;28;20028;-87
2022/12/14 07:51:05;;;;;;;8.32;2.92;;;;;;;;;;5006094;28;20530;-90
2022/12/14 07:53:31;;;;;;;4.28;2.30;;;;;;;;;;5003996;28;20300;-87
2022/12/14 07:56:05;;;;;;;6.78;2.58;;;;;;;;;;5004369;28;20056;-82
2022/12/14 07:58:32;;;;;;;6.22;2.47;;;;;;;;;;5001798;28;20021;-76
2022/12/14 08:01:30;;;;;;;4.53;2.45;;;;;;;;;;5003549;28;20026;-87
2022/12/14 08:03:58;;;;;;;5.35;2.47;;;;;;;;;;4969599;28;20815;-77
2022/12/14 08:06:25;;;;;;;5.38;2.20;;;;;;;;;;5019208;28;20025;-75
2022/12/14 08:08:52;;;;;;;4.82;2.10;;;;;;;;;;5003324;28;20014;-80
2022/12/14 08:11:21;;;;;;;8.45;2.40;;;;;;;;;;5005806;28;20068;-86
2022/12/14 08:13:47;;;;;;;5.80;2.03;;;;;;;;;;5004661;28;20406;-84
2022/12/14 08:16:17;;;;;;;5.70;2.25;;;;;;;;;;5002601;28;20050;-76
2022/12/14 08:18:43;;;;;;;5.53;2.55;;;;;;;;;;5005831;28;20018;-76
2022/12/14 08:21:11;;;;;;;3.85;1.90;;;;;;;;;;5004306;28;20091;-79
2022/12/14 08:23:37;;;;;;;8.30;2.40;;;;;;;;;;5003748;28;20084;-77
2022/12/14 08:26:04;;;;;;;9.27;2.80;;;;;;;;;;5004611;28;20050;-73
2022/12/14 08:28:31;;;;;;;6.65;2.38;;;;;;;;;;5000707;28;20014;-79
2022/12/14 08:30:58;;;;;;;5.80;1.73;;;;;;;;;;5004363;28;20041;-76
2022/12/14 08:33:24;;;;;;;3.13;2.10;;;;;;;;;;5002820;28;20184;-88
2022/12/14 08:35:50;;;;;;;6.82;1.67;;;;;;;;;;5004246;28;20043;-73
2022/12/14 08:38:17;;;;;;;5.95;1.60;;;;;;;;;;5002599;28;20393;-76
2022/12/14 08:40:43;;;;;;;3.70;1.83;;;;;;;;;;4997489;28;20057;-73
2022/12/14 08:43:09;;;;;;;3.58;2.00;;;;;;;;;;5001489;28;20034;-74
2022/12/14 08:45:35;;;;;;;4.90;2.35;;;;;;;;;;5003562;28;20627;-73
2022/12/14 08:48:02;;;;;;;5.18;1.92;;;;;;;;;;5003230;28;20018;-89
2022/12/14 08:50:29;;;;;;;6.05;2.13;;;;;;;;;;5003106;28;20263;-74
2022/12/14 08:52:55;;;;;;;3.33;1.63;;;;;;;;;;5001699;28;20018;-73
2022/12/14 08:55:22;;;;;;;8.68;2.83;;;;;;;;;;5001770;28;20117;-74
2022/12/14 08:57:48;;;;;;;5.82;2.00;;;;;;;;;;5003431;28;20026;-75
2022/12/14 09:00:15;;;;;;;4.72;1.67;;;;;;;;;;5002275;28;20014;-72
2022/12/14 09:02:42;;;;;;;5.50;1.58;;;;;;;;;;5001131;28;20477;-79
2022/12/14 09:05:09;;;;;;;7.10;1.55;;;;;;;;;;5003173;28;20064;-73
2022/12/14 09:07:35;;;;;;;4.22;1.60;;;;;;;;;;4994479;28;20029;-73
2022/12/14 09:10:02;;;;;;;5.43;1.67;;;;;;;;;;5001739;28;20014;-71
2022/12/14 09:12:28;;;;;;;5.57;1.92;;;;;;;;;;5001279;28;20112;-73
2022/12/14 09:14:54;;;;;;;5.63;1.58;;;;;;;;;;5001539;28;20017;-71
2022/12/14 09:17:20;;;;;;;2.47;1.60;;;;;;;;;;5000520;28;20080;-72
2022/12/14 09:19:46;;;;;;;3.10;1.58;;;;;;;;;;5001454;28;20022;-73
2022/12/14 09:22:13;;;;;;;2.78;1.60;;;;;;;;;;5001406;28;20105;-72
2022/12/14 09:24:39;;;;;;;4.03;1.90;;;;;;;;;;5001539;28;20449;-72
2022/12/14 09:27:05;;;;;;;3.08;1.50;;;;;;;;;;4999728;28;20129;-72
2022/12/14 09:29:32;;;;;;;4.00;1.70;;;;;;;;;;5001330;28;20021;-72
2022/12/14 09:31:58;;;;;;;4.55;1.40;;;;;;;;;;4999981;28;20105;-72
2022/12/14 09:34:24;;;;;;;3.90;1.58;;;;;;;;;;5000410;28;20058;-72
2022/12/14 09:36:51;;;;;;;3.42;1.50;;;;;;;;;;5002067;28;20071;-73
2022/12/14 09:39:18;;;;;;;3.17;1.48;;;;;;;;;;5005548;28;20520;-75
2022/12/14 09:41:44;;;;;;;4.50;1.60;;;;;;;;;;5005451;28;20025;-72
2022/12/14 09:44:25;;;;;;;3.15;1.58;;;;;;;;;;5005891;28;20045;-77
2022/12/14 09:47:04;;;;;;;5.15;1.95;;;;;;;;;;5001713;28;20036;-72
2022/12/14 09:49:42;;;;;;;5.60;1.70;;;;;;;;;;5004360;28;20026;-72
2022/12/14 09:52:12;;;;;;;2.80;2.15;;;;;;;;;;5005658;28;20030;-73
2022/12/14 09:54:39;;;;;;;3.97;1.80;;;;;;;;;;5005349;28;20020;-73
2022/12/14 09:57:10;;;;;;;2.55;1.33;;;;;;;;;;5004040;28;20656;-73
2022/12/14 09:59:37;;;;;;;7.57;1.75;;;;;;;;;;5005157;28;20117;-76
2022/12/14 10:02:18;;;;;;;2.42;1.52;;;;;;;;;;5003708;28;20161;-73
2022/12/14 10:04:47;;;;;;;5.67;1.83;;;;;;;;;;4998040;28;20105;-72
2022/12/14 10:07:16;;;;;;;2.63;1.70;;;;;;;;;;5005572;28;20263;-72
2022/12/14 10:09:47;;;;;;;3.67;1.42;;;;;;;;;;5004833;28;20028;-74
2022/12/14 10:12:23;;;;;;;5.95;2.10;;;;;;;;;;5005012;28;20025;-73
2022/12/14 10:14:52;;;;;;;3.35;1.50;;;;;;;;;;4999293;28;20144;-76
2022/12/14 10:17:28;;;;;;;2.08;1.38;;;;;;;;;;5005378;28;20663;-74
2022/12/14 10:20:21;;;;;;;4.78;1.15;;;;;;;;;;5000242;28;20057;-74
2022/12/14 10:22:48;;;;;;;3.60;2.33;;;;;;;;;;4974313;28;20034;-74
2022/12/14 10:25:18;;;;;;;3.75;1.70;;;;;;;;;;5004922;28;20321;-75
2022/12/14 10:27:50;;;;;;;4.35;1.60;;;;;;;;;;5003335;28;20022;-74
2022/12/14 10:30:18;;;;;;;5.20;1.50;;;;;;;;;;5004647;28;20018;-75
2022/12/14 10:32:51;;;;;;;3.13;1.50;;;;;;;;;;5003823;28;20022;-77
2022/12/14 10:35:22;;;;;;;2.95;1.77;;;;;;;;;;5004540;28;20617;-77
2022/12/14 10:37:55;;;;;;;3.08;1.42;;;;;;;;;;4997164;28;20034;-76
2022/12/14 10:40:29;;;;;;;2.90;1.33;;;;;;;;;;5002827;28;20053;-77
2022/12/14 10:43:04;;;;;;;4.72;1.40;;;;;;;;;;4992178;28;20045;-76
2022/12/14 10:45:41;;;;;;;3.78;1.40;;;;;;;;;;4999304;28;20085;-72
2022/12/14 10:48:26;;;;;;;3.17;1.45;;;;;;;;;;4997555;28;20129;-71
2022/12/14 10:50:52;;;;;;;4.93;1.27;;;;;;;;;;4996295;28;20498;-72
2022/12/14 10:53:22;;;;;;;3.92;1.52;;;;;;;;;;4996560;28;20026;-73
2022/12/14 10:55:51;;;;;;;3.53;1.60;;;;;;;;;;4998183;28;20030;-71
2022/12/14 10:58:17;;;;;;;2.75;1.25;;;;;;;;;;4999732;28;20417;-71
2022/12/14 11:00:43;;;;;;;2.67;1.48;;;;;;;;;;5000889;28;20026;-72
2022/12/14 11:03:14;;;;;;;2.45;1.20;;;;;;;;;;5001126;28;20026;-71
2022/12/14 11:05:42;;;;;;;5.32;1.60;;;;;;;;;;5000468;28;20057;-70
2022/12/14 11:08:10;;;;;;;2.50;1.55;;;;;;;;;;4998723;28;20164;-71
2022/12/14 11:10:40;;;;;;;34.53;6.50;;;;;;;;;;4997679;28;20036;-71
2022/12/14 11:13:12;;;;;;;5.22;1.80;;;;;;;;;;5000605;28;20685;-71
2022/12/14 11:15:41;;;;;;;4.85;1.60;;;;;;;;;;4991972;28;20085;-71
2022/12/14 11:18:18;;;;;;;3.60;1.58;;;;;;;;;;5002324;28;20040;-74
2022/12/14 11:20:53;;;;;;;4.00;1.45;;;;;;;;;;5016384;28;20026;-73
2022/12/14 11:23:21;;;;;;;4.28;1.52;;;;;;;;;;4997836;28;20040;-71
2022/12/14 11:25:53;;;;;;;4.95;1.40;;;;;;;;;;4995770;28;20538;-73
2022/12/14 11:28:19;;;;;;;;;;;;;;;;;;5002998;28;20018;-71
2022/12/14 11:31:00;;;;;;;3.88;1.80;;;;;;;;;;5002021;28;19906;-71
2022/12/14 11:33:30;;;;;;;3.17;1.60;;;;;;;;;;4995191;28;20070;-71
2022/12/14 11:35:57;;;;;;;3.78;1.40;;;;;;;;;;4997898;28;20033;-71
2022/12/14 11:38:24;;;;;;;2.67;1.30;;;;;;;;;;4996061;28;20053;-71
2022/12/14 11:40:50;;;;;;;4.10;1.80;;;;;;;;;;4998571;28;20079;-72
2022/12/14 11:43:37;;;;;;;5.03;1.70;;;;;;;;;;4995851;28;20463;-71
2022/12/14 11:46:04;;;;;;;4.13;1.60;;;;;;;;;;4996121;28;20425;-70
2022/12/14 11:48:33;;;;;;;6.22;1.70;;;;;;;;;;4997990;28;20023;-71
2022/12/14 11:51:09;;;;;;;5.60;1.80;;;;;;;;;;4998035;28;20117;-71
2022/12/14 11:53:36;;;;;;;4.97;1.73;;;;;;;;;;4992718;28;20104;-71
2022/12/14 11:56:04;;;;;;;3.72;1.70;;;;;;;;;;4997829;28;20480;-71
2022/12/14 11:58:32;;;;;;;3.35;1.50;;;;;;;;;;4994860;28;20117;-71
2022/12/14 12:01:11;;;;;;;5.22;1.73;;;;;;;;;;4997734;28;20025;-71
2022/12/14 12:03:38;;;;;;;5.07;1.77;;;;;;;;;;4997605;28;20040;-71
2022/12/14 12:06:13;;;;;;;4.28;1.85;;;;;;;;;;4995169;28;20573;-71
2022/12/14 12:08:40;;;;;;;8.02;1.95;;;;;;;;;;4993338;28;20026;-71
2022/12/14 12:11:18;;;;;;;6.38;1.98;;;;;;;;;;4999203;28;20034;-71
2022/12/14 12:13:46;;;;;;;4.97;1.77;;;;;;;;;;4995632;28;20026;-71
2022/12/14 12:16:20;;;;;;;5.68;2.15;;;;;;;;;;4999619;28;20123;-71
2022/12/14 12:18:54;;;;;;;7.93;2.30;;;;;;;;;;4994457;28;20387;-71
2022/12/14 12:21:26;;;;;;;7.57;2.10;;;;;;;;;;5001412;28;20470;-71
2022/12/14 12:24:01;;;;;;;5.18;2.47;;;;;;;;;;4995263;28;20798;-71
2022/12/14 12:26:36;;;;;;;8.85;2.60;;;;;;;;;;4995332;28;21015;-71
2022/12/14 12:29:06;;;;;;;8.63;2.47;;;;;;;;;;4995879;28;20049;-71
2022/12/14 12:31:37;;;;;;;12.77;3.35;;;;;;;;;;4997186;28;20108;-71
2022/12/14 12:34:10;;;;;;;10.33;2.30;;;;;;;;;;4997076;28;20030;-71
2022/12/14 12:36:38;;;;;;;9.13;2.65;;;;;;;;;;4993730;28;20034;-71
2022/12/14 12:39:05;;;;;;;7.32;2.35;;;;;;;;;;4997425;28;20026;-71
2022/12/14 12:41:33;;;;;;;8.88;2.25;;;;;;;;;;4995208;28;20042;-71
2022/12/14 12:43:59;;;;;;;10.82;2.63;;;;;;;;;;4994805;28;20025;-71
2022/12/14 12:46:49;;;;;;;8.50;3.03;;;;;;;;;;4997061;28;20037;-71
2022/12/14 12:49:15;;;;;;;8.95;2.75;;;;;;;;;;4990000;28;20030;-71
2022/12/14 12:51:44;;;;;;;8.43;2.63;;;;;;;;;;4999085;28;20691;-71
2022/12/14 12:54:17;;;;;;;13.05;3.30;;;;;;;;;;4994607;28;20057;-71
2022/12/14 12:56:46;;;;;;;10.40;3.20;;;;;;;;;;4996493;28;20029;-71
2022/12/14 12:59:23;;;;;;;7.50;3.42;;;;;;;;;;4995007;28;20025;-71
2022/12/14 13:01:52;;;;;;;15.43;3.95;;;;;;;;;;4996995;28;20025;-71
2022/12/14 13:04:26;;;;;;;16.55;3.85;;;;;;;;;;4994178;28;20026;-71
2022/12/14 13:06:55;;;;;;;17.65;4.43;;;;;;;;;;5008631;28;20113;-71
2022/12/14 13:09:27;;;;;;;9.60;3.15;;;;;;;;;;4992971;28;20026;-72
2022/12/14 13:11:54;;;;;;;10.02;3.50;;;;;;;;;;4999172;28;20102;-71
2022/12/14 13:14:23;;;;;;;18.27;4.05;;;;;;;;;;4993200;28;20022;-71
2022/12/14 13:16:50;;;;;;;18.40;4.00;;;;;;;;;;4997925;28;20026;-71
2022/12/14 13:19:22;;;;;;;12.23;3.67;;;;;;;;;;4990974;28;20115;-71
2022/12/14 13:21:50;;;;;;;11.10;3.95;;;;;;;;;;4996110;28;20113;-71
2022/12/14 13:24:18;;;;;;;17.65;4.13;;;;;;;;;;4994269;28;20045;-71
2022/12/14 13:26:59;;;;;;;15.05;3.65;;;;;;;;;;4992768;28;20109;-71
2022/12/14 13:29:31;;;;;;;12.48;3.20;;;;;;;;;;4996700;28;20036;-72
2022/12/14 13:32:05;;;;;;;13.13;3.55;;;;;;;;;;4993190;28;20052;-74
2022/12/14 13:34:49;;;;;;;15.57;3.53;;;;;;;;;;4993093;28;20513;-72
2022/12/14 13:37:24;;;;;;;13.77;3.70;;;;;;;;;;4996385;28;20030;-73
2022/12/14 13:40:09;;;;;;;11.70;3.85;;;;;;;;;;4995033;28;20125;-72
2022/12/14 13:42:47;;;;;;;16.88;3.28;;;;;;;;;;4994395;28;20503;-72
2022/12/14 13:45:19;;;;;;;15.35;4.03;;;;;;;;;;4997429;28;20438;-73
2022/12/14 13:47:48;;;;;;;13.05;3.75;;;;;;;;;;4993759;28;20025;-72
2022/12/14 13:50:35;;;;;;;15.80;3.72;;;;;;;;;;4990785;28;20034;-72
2022/12/14 13:53:25;;;;;;;14.77;3.78;;;;;;;;;;4992448;28;20021;-71
2022/12/14 13:55:52;;;;;;;14.98;3.30;;;;;;;;;;4986322;28;20048;-72
2022/12/14 13:58:20;;;;;;;19.35;3.88;;;;;;;;;;4992742;28;20096;-71
2022/12/14 14:00:55;;;;;;;14.85;3.83;;;;;;;;;;4995897;28;20076;-71
2022/12/14 14:03:36;;;;;;;14.18;3.30;;;;;;;;;;4996042;28;20469;-71
2022/12/14 14:06:11;;;;;;;21.33;4.43;;;;;;;;;;4992257;28;20033;-71
2022/12/14 14:08:51;;;;;;;16.40;3.75;;;;;;;;;;4989375;28;20068;-71
2022/12/14 14:11:22;;;;;;;17.02;4.18;;;;;;;;;;4987958;28;20049;-71
2022/12/14 14:13:49;;;;;;;;;;;;;;;;;;4992865;28;20030;-71
2022/12/14 14:16:24;;;;;;;17.67;3.08;;;;;;;;;;4994149;28;19925;-71
2022/12/14 14:18:50;;;;;;;23.25;3.78;;;;;;;;;;4993536;28;20037;-71
2022/12/14 14:21:19;;;;;;;18.60;4.03;;;;;;;;;;4996464;28;20026;-71
2022/12/14 14:24:09;;;;;;;11.13;3.25;;;;;;;;;;4992250;28;20690;-71
2022/12/14 14:26:36;;;;;;;21.20;4.13;;;;;;;;;;4993284;28;20068;-71
2022/12/14 14:29:12;;;;;;;13.65;3.85;;;;;;;;;;4995842;28;20014;-71
2022/12/14 14:31:47;;;;;;;17.83;3.83;;;;;;;;;;4997971;28;20040;-71
2022/12/14 14:34:16;;;;;;;17.90;3.35;;;;;;;;;;4994867;28;20026;-71
2022/12/14 14:36:44;;;;;;;11.82;2.75;;;;;;;;;;4995699;28;20116;-71
2022/12/14 14:39:43;;;;;;;10.43;2.85;;;;;;;;;;4996785;28;20833;-71
2022/12/14 14:42:16;;;;;;;17.60;3.40;;;;;;;;;;4972860;28;20069;-71
2022/12/14 14:44:48;;;;;;;8.48;2.90;;;;;;;;;;4997566;28;20037;-71
2022/12/14 14:47:20;;;;;;;12.15;2.78;;;;;;;;;;4996860;28;20036;-71
2022/12/14 14:49:50;;;;;;;10.73;3.38;;;;;;;;;;4993504;28;20029;-71
2022/12/14 14:52:35;;;;;;;16.25;3.78;;;;;;;;;;4996325;28;20075;-70
2022/12/14 14:55:21;;;;;;;16.85;3.47;;;;;;;;;;5009932;28;20675;-71
2022/12/14 14:57:58;;;;;;;14.15;3.08;;;;;;;;;;4997404;28;20036;-70
2022/12/14 15:00:25;;;;;;;8.80;2.35;;;;;;;;;;4993038;28;20572;-72
2022/12/14 15:02:52;;;;;;;10.43;3.15;;;;;;;;;;4998464;28;20029;-71
2022/12/14 15:05:22;;;;;;;7.65;2.28;;;;;;;;;;4998360;28;20041;-70
2022/12/14 15:07:48;;;;;;;8.80;2.65;;;;;;;;;;4997774;28;20030;-71
2022/12/14 15:10:53;;;;;;;9.43;2.53;;;;;;;;;;5009742;28;20038;-70
2022/12/14 15:13:22;;;;;;;8.68;2.42;;;;;;;;;;4955682;28;20058;-70